Terminal Aerodrome Forecast
Issued by NWS

Home | Current Version | Previous Version | Text Only | Print | Product List | Glossary On
Versions: 1 2 3 4 5 6 7 8 9 10 11 12 13 14 15 16 17 18
000
FTUS41 KBTV 251244 AAA
TAFRUT
TAF AMD
KRUT 251244Z 2513/2612 24010G20KT P6SM -SHRA BKN025 OVC035
      TEMPO 2513/2515 24007KT SCT025 OVC035
     FM251500 26017G34KT P6SM VCSH BKN035 OVC050
     FM252300 27014G26KT P6SM BKN060
     FM260400 28012KT P6SM SCT030 BKN060
      AMD LTD TO CLD VIS AND WIND=

USA.gov is the U.S. government's official web portal to all federal, state and local government web resources and services.